Time;durP1;ratioP1;P1;durP2;ratioP2;P2;SDS_P1;SDS_P2;PMS_P1;PMS_P2;Temp;Humidity;BMP_temperature;BMP_pressure;BME280_temperature;BME280_humidity;BME280_pressure;Samples;Min_cycle;Max_cycle;Signal;HPM_P1;HPM_P2
2021/12/08 00:01:24;;;;;;;9.18;2.47;;;;;;;3.51;99.56;99147.91;4956238;29;20031;-67
2021/12/08 00:03:50;;;;;;;5.53;2.83;;;;;;;3.51;99.32;99148.75;4955997;29;20027;-66
2021/12/08 00:06:16;;;;;;;6.00;2.35;;;;;;;3.50;99.76;99146.28;4939515;29;20027;-67
2021/12/08 00:09:06;;;;;;;5.40;2.92;;;;;;;3.49;99.96;99142.03;4956488;29;20050;-66
2021/12/08 00:14:15;;;;;;;5.97;2.50;;;;;;;3.49;100.00;99127.03;4956425;29;20090;-66
2021/12/08 00:16:41;;;;;;;4.35;2.80;;;;;;;3.56;100.00;99127.03;4956326;29;20419;-67
2021/12/08 00:19:06;;;;;;;5.22;2.47;;;;;;;3.58;99.92;99119.78;4956258;29;20146;-66
2021/12/08 00:21:32;;;;;;;3.40;2.15;;;;;;;3.58;100.00;99121.59;4939286;29;20039;-66
2021/12/08 00:23:57;;;;;;;7.82;2.45;;;;;;;3.59;100.00;99120.56;4956135;29;20082;-66
2021/12/08 00:26:23;;;;;;;5.05;3.03;;;;;;;3.57;100.00;99101.53;4956231;29;20039;-66
2021/12/08 00:28:48;;;;;;;7.07;3.50;;;;;;;3.63;100.00;99120.00;4955609;28;20134;-67
2021/12/08 00:31:13;;;;;;;6.72;2.67;;;;;;;3.64;100.00;99131.34;4956141;29;20118;-66
2021/12/08 00:33:40;;;;;;;5.78;2.80;;;;;;;3.65;100.00;99128.53;4955984;29;20104;-66
2021/12/08 00:36:11;;;;;;;4.65;2.30;;;;;;;3.67;100.00;99128.34;4955806;29;20031;-66
2021/12/08 00:38:37;;;;;;;5.70;2.53;;;;;;;3.70;100.00;99127.97;4955987;29;20035;-67
2021/12/08 00:41:03;;;;;;;4.13;2.20;;;;;;;3.73;100.00;99135.47;4955948;29;20031;-67
2021/12/08 00:43:29;;;;;;;7.05;2.70;;;;;;;3.76;100.00;99150.91;4955864;29;20557;-67
2021/12/08 00:45:54;;;;;;;4.43;2.40;;;;;;;3.79;100.00;99136.53;4955661;29;20388;-67
2021/12/08 00:48:21;;;;;;;3.63;2.08;;;;;;;3.81;100.00;99127.41;4955876;29;20050;-66
2021/12/08 00:50:48;;;;;;;12.40;4.68;;;;;;;3.82;100.00;99122.94;4955851;29;20082;-66
2021/12/08 00:53:14;;;;;;;3.22;2.13;;;;;;;3.88;100.00;99125.63;4938453;29;20383;-66
2021/12/08 00:55:39;;;;;;;7.53;3.55;;;;;;;3.90;100.00;99128.88;4955670;29;20067;-66
2021/12/08 00:58:06;;;;;;;5.40;3.05;;;;;;;3.92;100.00;99132.13;4955557;29;20471;-69
2021/12/08 01:00:36;;;;;;;7.82;3.70;;;;;;;3.98;100.00;99135.78;4922832;29;20459;-66
2021/12/08 01:03:02;;;;;;;6.05;3.63;;;;;;;4.03;100.00;99132.56;4955508;29;20035;-69
2021/12/08 01:05:32;;;;;;;5.50;2.80;;;;;;;4.06;100.00;99126.91;4955591;29;20038;-66
2021/12/08 01:07:58;;;;;;;3.55;2.42;;;;;;;4.10;100.00;99136.06;4955404;29;20477;-66
2021/12/08 01:10:27;;;;;;;5.40;2.65;;;;;;;4.10;100.00;99150.06;4938066;29;20121;-66
2021/12/08 01:12:53;;;;;;;6.63;3.05;;;;;;;4.17;100.00;99147.47;4955427;29;20434;-66
2021/12/08 01:15:19;;;;;;;4.50;2.13;;;;;;;4.20;100.00;99151.53;4955381;29;20074;-66
2021/12/08 01:17:45;;;;;;;4.90;2.33;;;;;;;4.25;100.00;99159.66;4955420;29;20104;-69
2021/12/08 01:20:14;;;;;;;3.88;2.10;;;;;;;4.28;100.00;99160.06;4955290;29;20035;-67
2021/12/08 01:22:40;;;;;;;7.75;2.50;;;;;;;4.30;100.00;99160.69;4955291;29;20039;-66
2021/12/08 01:25:06;;;;;;;4.03;2.00;;;;;;;4.35;100.00;99157.47;4955114;29;20093;-66
2021/12/08 01:27:33;;;;;;;4.95;2.08;;;;;;;4.42;100.00;99160.13;4955208;29;20065;-67
2021/12/08 01:29:59;;;;;;;2.00;1.75;;;;;;;4.46;100.00;99154.25;4954902;29;20062;-66
2021/12/08 01:32:24;;;;;;;5.50;1.50;;;;;;;4.54;100.00;99161.97;4955101;29;20028;-67
2021/12/08 01:34:52;;;;;;;5.63;2.50;;;;;;;4.57;100.00;99166.84;4955023;29;20098;-67
2021/12/08 01:37:18;;;;;;;4.93;1.88;;;;;;;4.68;100.00;99165.47;4954835;29;20106;-67
2021/12/08 01:39:44;;;;;;;3.85;2.22;;;;;;;4.76;100.00;99164.47;4954802;29;20119;-67
2021/12/08 01:42:16;;;;;;;4.32;1.45;;;;;;;4.80;100.00;99165.69;4937351;29;20031;-67
2021/12/08 01:47:29;;;;;;;3.70;1.52;;;;;;;4.87;100.00;99173.63;4954878;29;20490;-66
2021/12/08 01:49:55;;;;;;;4.05;1.90;;;;;;;4.89;100.00;99174.25;4954346;29;20078;-66
2021/12/08 01:52:20;;;;;;;3.70;2.00;;;;;;;4.90;100.00;99174.06;4937058;29;20035;-66
2021/12/08 01:54:46;;;;;;;6.13;1.60;;;;;;;4.97;100.00;99182.78;4937812;29;20054;-66
2021/12/08 01:57:12;;;;;;;4.30;1.42;;;;;;;4.97;100.00;99182.78;4954654;29;20066;-66
2021/12/08 01:59:37;;;;;;;4.50;1.95;;;;;;;4.94;100.00;99179.75;4954422;29;20035;-67
2021/12/08 02:02:03;;;;;;;1.75;1.40;;;;;;;4.96;100.00;99181.16;4954759;29;20086;-66
2021/12/08 02:04:28;;;;;;;4.57;1.40;;;;;;;4.98;100.00;99178.34;4954674;29;20031;-66
2021/12/08 02:06:53;;;;;;;3.85;1.73;;;;;;;4.95;100.00;99173.44;4954600;29;20031;-67
2021/12/08 02:09:19;;;;;;;3.15;1.40;;;;;;;5.01;100.00;99183.22;4954644;29;20051;-66
2021/12/08 02:11:46;;;;;;;3.65;1.73;;;;;;;5.03;100.00;99197.00;4954503;28;20046;-66
2021/12/08 02:14:13;;;;;;;2.50;1.65;;;;;;;5.04;100.00;99196.00;4954495;29;20023;-66
2021/12/08 02:16:38;;;;;;;4.28;1.20;;;;;;;5.01;100.00;99197.22;4954471;29;20376;-66
2021/12/08 02:19:05;;;;;;;4.35;1.60;;;;;;;5.05;100.00;99206.34;4954428;29;20034;-67
2021/12/08 02:21:36;;;;;;;8.45;1.92;;;;;;;5.09;100.00;99208.63;4954655;29;20489;-67
2021/12/08 02:24:06;;;;;;;2.88;1.25;;;;;;;5.10;100.00;99202.31;4954439;29;20078;-67
2021/12/08 02:26:33;;;;;;;5.28;1.92;;;;;;;5.12;100.00;99202.94;4954569;29;20110;-66
2021/12/08 02:29:02;;;;;;;2.22;1.55;;;;;;;5.18;100.00;99223.25;4954469;29;20055;-66
2021/12/08 02:31:43;;;;;;;5.03;2.22;;;;;;;5.18;100.00;99218.78;4954520;29;20538;-66
2021/12/08 02:47:54;;;;;;;2.80;1.90;;;;;;;5.27;100.00;99230.00;4954263;29;20046;-67
2021/12/08 02:50:26;;;;;;;2.50;1.45;;;;;;;5.33;100.00;99236.28;4954055;29;20023;-67
2021/12/08 02:52:53;;;;;;;3.20;1.60;;;;;;;5.33;100.00;99238.94;4956643;28;20038;-67
2021/12/08 02:55:19;;;;;;;5.43;1.60;;;;;;;5.28;100.00;99231.59;4957616;29;20106;-67
2021/12/08 02:57:44;;;;;;;3.70;1.60;;;;;;;5.25;100.00;99238.09;4957624;29;20126;-66
2021/12/08 03:00:14;;;;;;;3.10;1.50;;;;;;;5.21;100.00;99247.47;4957607;29;20036;-67
2021/12/08 03:02:40;;;;;;;5.57;1.80;;;;;;;5.18;100.00;99239.91;4957681;29;20051;-67
2021/12/08 03:05:05;;;;;;;2.97;1.70;;;;;;;5.15;100.00;99245.63;4957604;29;20032;-67
2021/12/08 03:07:31;;;;;;;5.93;1.65;;;;;;;5.15;100.00;99242.97;4957577;29;20035;-67
2021/12/08 03:10:13;;;;;;;5.13;1.85;;;;;;;5.14;100.00;99246.63;4957511;28;20023;-67
2021/12/08 03:12:38;;;;;;;;;;;;;;;5.19;100.00;99243.41;4957934;29;20106;-67
2021/12/08 03:15:05;;;;;;;5.40;2.03;;;;;;;5.17;100.00;99240.94;4956724;29;19941;-67
2021/12/08 03:17:33;;;;;;;3.45;2.05;;;;;;;5.17;100.00;99246.22;4957412;29;20035;-67
2021/12/08 03:19:58;;;;;;;3.50;1.70;;;;;;;5.17;100.00;99240.94;4957097;29;20090;-67
2021/12/08 03:22:24;;;;;;;6.47;2.85;;;;;;;5.18;100.00;99247.84;4957326;29;20466;-67
2021/12/08 03:24:51;;;;;;;3.63;1.70;;;;;;;5.18;100.00;99247.84;4957343;29;20055;-67
2021/12/08 03:27:21;;;;;;;4.07;1.80;;;;;;;5.22;100.00;99254.38;4957226;29;20506;-67
2021/12/08 03:29:54;;;;;;;7.25;1.92;;;;;;;5.23;100.00;99261.28;4957195;29;20518;-67
2021/12/08 03:32:30;;;;;;;6.70;1.95;;;;;;;5.25;100.00;99259.25;4957154;29;20482;-68
2021/12/08 03:34:55;;;;;;;9.88;2.35;;;;;;;5.28;100.00;99269.41;4956782;29;20023;-67
2021/12/08 03:37:30;;;;;;;5.53;1.80;;;;;;;5.30;100.00;99263.94;4956566;29;20038;-67
2021/12/08 03:39:57;;;;;;;6.47;3.40;;;;;;;5.34;99.77;99274.91;4956293;29;20082;-67
2021/12/08 03:42:26;;;;;;;6.68;2.22;;;;;;;5.38;98.83;99276.16;4956712;29;20027;-67
2021/12/08 03:44:55;;;;;;;4.53;2.10;;;;;;;5.39;98.48;99270.66;4956886;29;20032;-67
2021/12/08 03:47:26;;;;;;;4.15;1.83;;;;;;;5.41;98.24;99268.63;4956853;29;20034;-67
2021/12/08 03:49:53;;;;;;;6.47;1.80;;;;;;;5.42;98.23;99266.78;4956613;29;20027;-67
2021/12/08 03:52:18;;;;;;;5.00;1.80;;;;;;;5.37;98.15;99269.22;4956859;29;20450;-67
2021/12/08 03:54:43;;;;;;;3.67;1.55;;;;;;;5.29;97.63;99264.94;4939603;29;20024;-67
2021/12/08 03:57:09;;;;;;;4.50;2.33;;;;;;;5.21;97.81;99278.34;4939629;29;20037;-67
2021/12/08 03:59:35;;;;;;;6.32;1.88;;;;;;;5.12;97.73;99274.28;4956689;29;20042;-67
2021/12/08 04:02:01;;;;;;;5.05;1.50;;;;;;;5.02;98.03;99274.66;4956549;29;20038;-67
2021/12/08 04:04:29;;;;;;;3.40;1.65;;;;;;;4.99;97.66;99277.69;4938799;29;20495;-67
2021/12/08 04:06:56;;;;;;;3.78;1.45;;;;;;;4.94;97.53;99283.56;4956591;29;20039;-67
2021/12/08 04:09:29;;;;;;;4.22;1.73;;;;;;;4.90;96.96;99276.22;4939685;29;20035;-67
2021/12/08 04:11:56;;;;;;;5.00;1.55;;;;;;;4.83;97.14;99273.59;4955886;28;20435;-67
2021/12/08 04:14:23;;;;;;;4.95;1.58;;;;;;;4.79;97.00;99283.75;4956399;29;20023;-67
2021/12/08 04:16:54;;;;;;;4.05;1.70;;;;;;;4.70;97.09;99277.00;4956382;29;20062;-67
2021/12/08 04:19:21;;;;;;;6.63;1.70;;;;;;;4.64;97.29;99291.00;4956338;29;20031;-67
2021/12/08 04:21:51;;;;;;;2.72;1.50;;;;;;;4.55;96.95;99292.16;4956262;29;20035;-67
2021/12/08 04:24:17;;;;;;;6.25;1.80;;;;;;;4.52;97.16;99292.56;4956271;29;20031;-67
2021/12/08 04:26:55;;;;;;;5.80;2.22;;;;;;;4.45;97.45;99294.34;4955962;29;20031;-67
2021/12/08 04:29:24;;;;;;;6.90;2.08;;;;;;;4.40;97.11;99300.19;4955803;29;20083;-67
2021/12/08 04:31:51;;;;;;;5.38;1.40;;;;;;;4.36;97.13;99305.06;4938276;29;20066;-67
2021/12/08 04:34:24;;;;;;;1.67;1.58;;;;;;;4.30;97.38;99303.19;4955620;29;20046;-66
2021/12/08 04:36:52;;;;;;;4.95;1.98;;;;;;;4.31;97.43;99309.28;4955467;29;20485;-67
2021/12/08 04:39:38;;;;;;;4.80;1.50;;;;;;;4.28;97.81;99299.94;4955673;29;20452;-67
2021/12/08 04:42:09;;;;;;;4.85;2.00;;;;;;;4.26;97.91;99301.13;4955857;29;20112;-67
2021/12/08 04:44:42;;;;;;;5.13;1.50;;;;;;;4.25;98.34;99308.25;4955729;29;20027;-66
2021/12/08 05:01:23;;;;;;;6.15;1.30;;;;;;;4.08;97.86;99297.16;4955857;29;20038;-67
2021/12/08 05:09:08;;;;;;;9.80;2.05;;;;;;;4.00;97.39;99325.53;4955407;29;20031;-66
2021/12/08 05:11:39;;;;;;;2.50;1.52;;;;;;;3.98;97.50;99324.88;4955357;28;20031;-66
2021/12/08 05:14:16;;;;;;;7.60;1.60;;;;;;;3.96;96.92;99327.72;4955454;29;20031;-67
2021/12/08 05:16:45;;;;;;;2.55;1.00;;;;;;;3.93;97.15;99323.66;4954400;29;20118;-67
2021/12/08 05:19:18;;;;;;;5.57;1.45;;;;;;;3.92;96.59;99337.03;4955057;29;20097;-67
2021/12/08 05:21:51;;;;;;;6.32;1.02;;;;;;;3.91;96.94;99341.50;4955228;29;20034;-67
2021/12/08 05:24:21;;;;;;;3.75;1.15;;;;;;;3.97;96.68;99339.09;4954849;29;20104;-67
2021/12/08 05:26:59;;;;;;;13.45;3.35;;;;;;;3.99;96.73;99345.00;4954609;29;20166;-67
2021/12/08 05:29:41;;;;;;;2.65;1.30;;;;;;;4.14;95.97;99343.91;4954877;29;20090;-67
2021/12/08 05:32:08;;;;;;;3.45;1.33;;;;;;;4.22;96.25;99339.47;4955051;29;20069;-67
2021/12/08 05:34:34;;;;;;;4.32;1.42;;;;;;;4.25;95.66;99342.56;4955088;29;20110;-67
2021/12/08 05:37:01;;;;;;;4.07;1.30;;;;;;;4.28;95.66;99338.72;4955032;29;20391;-67
2021/12/08 05:39:30;;;;;;;6.63;1.67;;;;;;;4.29;95.13;99341.13;4955135;29;20031;-67
2021/12/08 05:42:02;;;;;;;3.60;0.95;;;;;;;4.28;95.18;99347.44;4955091;29;20467;-67
2021/12/08 05:44:28;;;;;;;5.47;1.35;;;;;;;4.27;95.22;99350.25;4954917;29;20078;-67
2021/12/08 05:46:58;;;;;;;9.75;2.08;;;;;;;4.28;94.98;99362.47;4954898;29;20023;-68
2021/12/08 05:49:26;;;;;;;2.40;1.40;;;;;;;4.29;94.03;99367.53;4954858;29;20031;-67
2021/12/08 05:51:53;;;;;;;5.10;1.90;;;;;;;4.33;94.40;99376.72;4937018;29;20074;-67
2021/12/08 05:54:29;;;;;;;6.07;1.98;;;;;;;4.35;94.07;99376.53;4954962;29;20038;-67
2021/12/08 05:56:55;;;;;;;10.23;3.05;;;;;;;4.33;94.18;99374.06;4954856;29;20067;-67
2021/12/08 05:59:22;;;;;;;6.97;1.52;;;;;;;4.29;93.93;99367.53;4937752;29;20125;-67
2021/12/08 06:01:54;;;;;;;8.70;1.30;;;;;;;4.31;93.77;99376.06;4937730;29;20063;-66
2021/12/08 06:04:23;;;;;;;11.80;3.00;;;;;;;4.32;93.77;99367.16;4954646;29;20027;-67
2021/12/08 06:06:49;;;;;;;4.22;1.20;;;;;;;4.32;93.82;99375.09;4954732;29;20490;-67
2021/12/08 06:09:17;;;;;;;7.32;1.40;;;;;;;4.32;93.98;99380.38;4954600;29;20027;-67
2021/12/08 06:11:44;;;;;;;3.17;1.27;;;;;;;4.28;93.69;99375.66;4954624;28;20027;-66
2021/12/08 06:14:11;;;;;;;5.40;1.63;;;;;;;4.34;94.00;99386.25;4937337;29;20058;-66
2021/12/08 06:16:39;;;;;;;2.83;1.30;;;;;;;4.31;93.55;99386.63;4954565;29;20038;-68
2021/12/08 06:19:08;;;;;;;5.80;1.65;;;;;;;4.32;93.44;99400.63;4937284;29;20474;-66
2021/12/08 06:21:34;;;;;;;2.40;1.45;;;;;;;4.31;93.95;99397.19;4953687;29;20042;-67
2021/12/08 06:24:03;;;;;;;5.82;1.33;;;;;;;4.29;93.59;99401.84;4954174;29;20028;-66
2021/12/08 06:26:30;;;;;;;11.98;2.03;;;;;;;4.29;93.38;99401.03;4955017;28;20492;-67
2021/12/08 06:28:57;;;;;;;7.97;1.55;;;;;;;4.27;93.57;99417.06;4940997;29;20126;-67
2021/12/08 06:31:25;;;;;;;5.78;1.38;;;;;;;4.27;93.35;99424.16;4958424;29;20035;-67
2021/12/08 06:33:52;;;;;;;9.32;2.08;;;;;;;4.29;93.22;99422.13;4958306;29;20470;-66
2021/12/08 06:36:27;;;;;;;6.90;1.50;;;;;;;4.30;93.11;99426.44;4940815;29;20027;-67
2021/12/08 06:38:53;;;;;;;11.57;2.72;;;;;;;4.32;93.56;99425.22;4958128;29;20048;-67
2021/12/08 06:41:37;;;;;;;9.70;2.08;;;;;;;4.35;93.63;99431.97;4958092;29;20074;-67
2021/12/08 06:44:19;;;;;;;6.90;1.77;;;;;;;4.36;93.29;99441.50;4958026;29;20027;-67
2021/12/08 06:46:46;;;;;;;5.05;2.10;;;;;;;4.36;93.04;99431.75;4957965;29;20027;-67
2021/12/08 06:49:17;;;;;;;8.18;2.58;;;;;;;4.36;93.05;99431.75;4958055;29;20049;-67
2021/12/08 06:51:47;;;;;;;10.77;1.90;;;;;;;4.33;93.30;99436.59;4957929;29;20031;-67
2021/12/08 06:54:24;;;;;;;7.82;2.83;;;;;;;4.32;92.88;99419.94;4957380;29;20682;-67
2021/12/08 06:56:56;;;;;;;7.65;2.42;;;;;;;4.37;92.34;99422.00;4957815;29;20055;-67
2021/12/08 06:59:26;;;;;;;10.35;2.58;;;;;;;4.35;91.96;99421.41;4957520;29;20074;-67
2021/12/08 07:02:08;;;;;;;14.02;3.78;;;;;;;4.29;92.29;99427.41;4957727;29;20426;-66
2021/12/08 07:04:54;;;;;;;3.58;1.45;;;;;;;4.23;92.28;99433.47;4940408;29;20042;-67
2021/12/08 07:07:27;;;;;;;5.85;1.85;;;;;;;4.09;92.80;99428.09;4957729;29;20043;-67
2021/12/08 07:09:57;;;;;;;8.55;2.03;;;;;;;4.02;92.36;99427.19;4957613;28;20110;-67
2021/12/08 07:12:31;;;;;;;5.47;1.90;;;;;;;3.94;92.59;99424.69;4957476;29;20023;-67
2021/12/08 07:15:10;;;;;;;4.43;1.73;;;;;;;3.90;92.93;99426.06;4956810;29;20055;-67
2021/12/08 07:17:38;;;;;;;8.75;2.17;;;;;;;3.84;92.44;99434.72;4957469;29;20410;-67
2021/12/08 07:20:15;;;;;;;6.20;2.55;;;;;;;3.78;93.03;99438.13;4957413;29;20033;-67
2021/12/08 07:22:45;;;;;;;7.85;1.70;;;;;;;3.73;92.93;99465.88;4957418;29;20031;-67
2021/12/08 07:25:12;;;;;;;5.78;1.50;;;;;;;3.68;93.37;99462.97;4957237;29;20031;-66
2021/12/08 07:27:39;;;;;;;9.48;2.55;;;;;;;3.64;93.03;99456.44;4957145;29;20035;-67
2021/12/08 07:30:20;;;;;;;6.15;1.33;;;;;;;3.64;93.45;99460.88;4950817;29;20106;-66
2021/12/08 07:32:45;;;;;;;11.60;2.67;;;;;;;3.60;93.25;99455.19;4934707;29;20034;-67
2021/12/08 07:35:16;;;;;;;8.48;2.20;;;;;;;3.57;93.41;99466.09;4934678;29;20039;-67
2021/12/08 07:37:42;;;;;;;4.07;1.30;;;;;;;3.59;93.06;99481.72;4934061;29;20027;-66
2021/12/08 07:40:14;;;;;;;7.95;2.83;;;;;;;3.56;93.20;99485.53;4934047;29;20571;-67
2021/12/08 07:42:55;;;;;;;11.98;3.83;;;;;;;3.53;93.36;99483.28;4934539;29;20126;-66
2021/12/08 07:45:25;;;;;;;8.68;3.45;;;;;;;3.49;92.98;99485.47;4934617;29;20098;-67
2021/12/08 07:47:53;;;;;;;12.05;2.97;;;;;;;3.48;93.14;99497.03;4934510;29;20526;-69
2021/12/08 07:50:43;;;;;;;7.78;2.50;;;;;;;3.46;93.18;99493.75;4934508;29;20035;-67
2021/12/08 07:53:10;;;;;;;9.18;1.58;;;;;;;3.44;93.34;99498.38;4934482;29;20050;-67
2021/12/08 07:55:40;;;;;;;12.05;3.13;;;;;;;3.48;93.24;99502.28;4934053;29;20023;-66
2021/12/08 07:58:07;;;;;;;6.88;3.17;;;;;;;3.54;93.35;99494.63;4934473;29;20039;-67
2021/12/08 08:00:49;;;;;;;4.20;2.17;;;;;;;3.61;92.78;99501.63;4934341;29;20042;-66
2021/12/08 08:03:17;;;;;;;10.48;2.83;;;;;;;3.64;92.78;99497.78;4934158;29;20036;-67
2021/12/08 08:05:50;;;;;;;10.65;2.50;;;;;;;3.69;92.46;99498.91;4934229;29;20032;-67
2021/12/08 08:08:18;;;;;;;7.68;2.97;;;;;;;3.77;92.53;99497.94;4933741;29;20115;-66
2021/12/08 08:10:54;;;;;;;14.07;2.17;;;;;;;3.76;92.28;99488.41;4934011;29;20031;-66
2021/12/08 08:13:21;;;;;;;4.00;1.92;;;;;;;3.87;91.97;99506.38;4934017;29;20019;-67
2021/12/08 08:15:51;;;;;;;8.95;2.35;;;;;;;3.87;92.17;99506.38;4934584;29;20062;-67
2021/12/08 08:18:22;;;;;;;8.73;2.97;;;;;;;3.92;91.96;99511.91;4937260;29;20387;-66
2021/12/08 08:20:55;;;;;;;7.13;1.90;;;;;;;3.97;91.56;99513.19;4937162;29;20062;-66
2021/12/08 08:23:24;;;;;;;9.77;1.90;;;;;;;4.04;91.09;99516.72;4936931;29;20057;-67
2021/12/08 08:25:53;;;;;;;7.07;2.58;;;;;;;4.05;91.34;99511.22;4937135;29;20019;-66
2021/12/08 08:28:19;;;;;;;6.63;1.70;;;;;;;4.08;90.91;99512.69;4937012;29;20031;-66
2021/12/08 08:30:49;;;;;;;3.67;1.70;;;;;;;4.10;91.09;99516.78;4936946;29;20407;-66
2021/12/08 08:33:16;;;;;;;8.10;1.75;;;;;;;4.11;90.41;99514.94;4937121;29;20055;-66
2021/12/08 08:35:53;;;;;;;4.22;1.88;;;;;;;4.14;90.31;99523.31;4936903;29;20036;-66
2021/12/08 08:38:28;;;;;;;4.78;1.80;;;;;;;4.17;90.53;99522.94;4936805;29;20031;-66
2021/12/08 08:41:04;;;;;;;6.78;2.22;;;;;;;4.18;89.94;99516.66;4936800;29;20031;-66
2021/12/08 08:43:30;;;;;;;5.35;1.55;;;;;;;4.23;89.92;99515.28;4936589;29;20127;-66
2021/12/08 08:46:10;;;;;;;8.88;2.10;;;;;;;4.23;89.68;99516.09;4936631;29;20081;-66
2021/12/08 08:48:41;;;;;;;8.10;2.58;;;;;;;4.25;89.06;99500.88;4936730;29;20023;-66
2021/12/08 08:51:25;;;;;;;5.10;1.60;;;;;;;4.28;89.03;99492.59;4919549;29;20390;-66
2021/12/08 08:53:55;;;;;;;6.90;2.35;;;;;;;4.37;88.30;99496.72;4936531;29;20091;-66
2021/12/08 08:56:29;;;;;;;6.88;2.22;;;;;;;4.42;88.65;99500.63;4936085;29;20545;-66
2021/12/08 08:58:59;;;;;;;8.23;2.10;;;;;;;4.48;87.50;99494.56;4936276;29;20043;-66
2021/12/08 09:01:37;;;;;;;9.03;2.53;;;;;;;4.47;87.48;99487.66;4936524;29;20047;-65
2021/12/08 09:04:08;;;;;;;3.97;2.00;;;;;;;4.39;87.42;99484.16;4936322;29;20339;-65
2021/12/08 09:06:40;;;;;;;8.07;1.90;;;;;;;4.39;87.90;99497.34;4936443;29;20130;-65
2021/12/08 09:09:16;;;;;;;6.32;2.08;;;;;;;4.41;87.48;99501.63;4936328;29;20031;-65
2021/12/08 09:11:49;;;;;;;7.13;1.98;;;;;;;4.39;87.47;99497.34;4919245;29;20035;-65
2021/12/08 09:14:21;;;;;;;5.03;1.70;;;;;;;4.45;87.72;99505.50;4936337;29;20024;-65
2021/12/08 09:16:46;;;;;;;;;;;;;;;4.52;88.92;99506.41;4936646;29;20083;-65
2021/12/08 09:19:23;;;;;;;5.77;1.47;;;;;;;4.56;86.48;99511.13;4936502;29;20347;-65
2021/12/08 09:22:06;;;;;;;5.88;1.67;;;;;;;4.62;86.54;99506.88;4936128;29;20051;-65
2021/12/08 09:24:48;;;;;;;5.05;3.13;;;;;;;4.63;86.58;99512.97;4936124;29;20503;-65
2021/12/08 09:27:21;;;;;;;3.70;1.85;;;;;;;4.60;86.62;99517.63;4935958;29;20087;-65
2021/12/08 09:29:55;;;;;;;6.90;1.40;;;;;;;4.60;86.26;99530.03;4935845;29;20130;-66
2021/12/08 09:32:55;;;;;;;4.00;1.27;;;;;;;4.66;86.51;99534.53;4935814;29;20114;-65
2021/12/08 09:35:31;;;;;;;4.38;1.70;;;;;;;4.72;86.29;99544.34;4922110;29;20046;-67
2021/12/08 09:38:05;;;;;;;6.32;1.63;;;;;;;4.76;85.97;99545.59;4936012;29;20083;-65
2021/12/08 09:40:57;;;;;;;3.78;1.52;;;;;;;4.81;85.20;99545.81;4918680;29;20028;-65
2021/12/08 09:43:28;;;;;;;9.00;2.53;;;;;;;4.89;86.34;99544.06;4935868;29;20027;-65
2021/12/08 09:46:03;;;;;;;2.97;1.70;;;;;;;4.96;85.79;99548.38;4935805;29;20024;-67
2021/12/08 09:48:29;;;;;;;2.08;1.77;;;;;;;5.05;86.19;99541.13;4935867;29;20023;-65
2021/12/08 09:50:59;;;;;;;4.80;1.33;;;;;;;5.14;85.32;99544.44;4935865;29;20122;-67
2021/12/08 09:53:26;;;;;;;4.95;2.03;;;;;;;5.19;85.27;99539.41;4935800;29;20031;-67
2021/12/08 09:55:53;;;;;;;4.78;1.80;;;;;;;5.25;85.15;99542.06;4935806;29;20387;-65
2021/12/08 09:58:18;;;;;;;7.47;2.05;;;;;;;5.26;85.45;99535.75;4935682;29;20482;-65
2021/12/08 10:00:53;;;;;;;8.05;2.15;;;;;;;5.37;84.55;99541.53;4935576;29;20047;-66
2021/12/08 10:03:18;;;;;;;9.90;2.25;;;;;;;5.41;83.55;99530.38;4941713;29;20106;-68
2021/12/08 10:05:44;;;;;;;7.82;2.85;;;;;;;5.45;84.40;99514.94;4942066;29;20115;-66
2021/12/08 10:08:10;;;;;;;2.10;1.67;;;;;;;5.54;83.83;99510.28;4942086;29;20051;-65
2021/12/08 10:10:41;;;;;;;6.32;2.22;;;;;;;5.59;84.77;99513.97;4941815;29;20083;-65
2021/12/08 10:13:07;;;;;;;5.80;2.38;;;;;;;5.63;84.41;99514.38;4941804;29;20035;-66
2021/12/08 10:15:32;;;;;;;8.82;3.05;;;;;;;5.66;84.24;99520.13;4941200;29;20383;-65
2021/12/08 10:17:59;;;;;;;8.43;1.98;;;;;;;5.68;83.63;99522.53;4941815;29;20035;-65
2021/12/08 10:20:34;;;;;;;4.20;1.95;;;;;;;5.71;83.43;99508.91;4941979;29;20487;-65
2021/12/08 10:23:21;;;;;;;5.78;2.03;;;;;;;5.75;83.79;99512.81;4941968;29;20062;-65
2021/12/08 10:26:09;;;;;;;4.93;1.67;;;;;;;5.70;82.63;99492.25;4941846;29;20020;-66
2021/12/08 10:28:38;;;;;;;2.15;1.63;;;;;;;5.76;82.61;99489.81;4941763;29;20036;-66
2021/12/08 10:31:13;;;;;;;7.43;2.13;;;;;;;5.77;83.03;99488.81;4941828;29;20073;-66
2021/12/08 10:39:07;;;;;;;5.82;1.58;;;;;;;5.74;82.94;99490.03;4941775;29;20035;-66
2021/12/08 10:41:56;;;;;;;7.80;1.80;;;;;;;5.78;83.96;99491.25;4941272;29;20028;-66
2021/12/08 10:44:31;;;;;;;6.53;1.83;;;;;;;5.76;81.94;99489.81;4941575;29;20299;-66
2021/12/08 10:46:58;;;;;;;6.20;1.80;;;;;;;5.70;82.43;99494.88;4941751;29;20110;-65
2021/12/08 10:54:45;;;;;;;7.18;1.92;;;;;;;5.65;82.56;99485.91;4941815;29;20035;-66
2021/12/08 10:57:45;;;;;;;4.93;2.30;;;;;;;5.60;84.00;99496.28;4941576;29;20118;-66
2021/12/08 11:00:17;;;;;;;5.72;2.25;;;;;;;5.56;82.92;99501.16;4900168;29;20078;-65
2021/12/08 11:03:00;;;;;;;5.93;2.45;;;;;;;5.48;82.43;99506.63;4941230;29;20494;-66
2021/12/08 11:05:26;;;;;;;4.38;1.73;;;;;;;5.45;83.03;99499.88;4941387;29;20422;-65
2021/12/08 11:08:04;;;;;;;5.38;2.15;;;;;;;5.42;83.32;99504.72;4941503;29;20027;-66
2021/12/08 11:10:31;;;;;;;3.85;2.13;;;;;;;5.41;83.50;99505.75;4941392;29;20434;-66
2021/12/08 11:12:58;;;;;;;10.52;2.85;;;;;;;5.42;83.84;99513.50;4940488;29;20028;-65
2021/12/08 11:15:26;;;;;;;4.97;1.45;;;;;;;5.44;83.79;99518.59;4938397;29;20479;-65
2021/12/08 11:18:13;;;;;;;3.25;1.65;;;;;;;5.49;83.70;99526.75;4938464;29;20062;-65
2021/12/08 11:20:49;;;;;;;5.75;1.42;;;;;;;5.55;83.20;99531.25;4938352;29;20390;-65
2021/12/08 11:23:28;;;;;;;14.60;3.65;;;;;;;5.60;83.32;99541.22;4938316;29;20468;-65
2021/12/08 11:25:54;;;;;;;7.88;1.95;;;;;;;5.61;82.49;99538.41;4938250;29;20023;-66
2021/12/08 11:28:24;;;;;;;5.57;1.70;;;;;;;5.66;83.09;99554.50;4938322;29;20181;-66
2021/12/08 11:30:52;;;;;;;4.90;1.98;;;;;;;5.75;82.88;99556.97;4938014;29;20056;-66
2021/12/08 11:33:22;;;;;;;6.28;1.83;;;;;;;5.85;82.56;99566.19;4937933;29;20039;-66
2021/12/08 11:35:48;;;;;;;8.45;2.10;;;;;;;5.97;82.79;99561.16;4937992;29;20078;-66
2021/12/08 11:38:24;;;;;;;11.57;3.78;;;;;;;6.05;81.95;99558.34;4937983;29;20027;-65
2021/12/08 11:40:49;;;;;;;5.70;2.20;;;;;;;6.10;81.82;99566.50;4938100;29;20055;-66
2021/12/08 11:43:15;;;;;;;7.20;2.10;;;;;;;6.15;82.34;99572.00;4920796;29;20633;-66
2021/12/08 11:45:42;;;;;;;3.80;1.80;;;;;;;6.20;82.27;99565.31;4937291;29;20039;-66
2021/12/08 11:48:24;;;;;;;3.70;1.48;;;;;;;6.19;81.67;99574.28;4937631;29;20110;-66
2021/12/08 11:51:09;;;;;;;4.53;1.50;;;;;;;6.19;82.41;99579.56;4937833;29;20443;-66
2021/12/08 11:53:39;;;;;;;5.93;1.80;;;;;;;6.17;81.19;99565.69;4937834;29;20094;-66
2021/12/08 11:56:05;;;;;;;4.50;2.13;;;;;;;6.13;81.50;99574.06;4937620;29;20035;-66
2021/12/08 11:58:30;;;;;;;3.92;2.05;;;;;;;6.14;81.48;99578.31;4920699;29;20443;-66
2021/12/08 12:00:56;;;;;;;6.57;1.63;;;;;;;6.14;81.43;99573.03;4937444;29;20024;-65
2021/12/08 12:03:21;;;;;;;6.60;1.70;;;;;;;6.11;81.36;99577.91;4937178;29;20080;-66
2021/12/08 12:05:48;;;;;;;4.03;2.28;;;;;;;6.08;81.35;99579.13;4920269;29;20090;-66
2021/12/08 12:08:17;;;;;;;12.45;1.88;;;;;;;6.06;81.25;99586.44;4937549;29;20434;-66
2021/12/08 12:10:45;;;;;;;3.63;1.77;;;;;;;6.05;80.91;99597.22;4937402;29;20423;-66
2021/12/08 12:13:12;;;;;;;6.53;2.72;;;;;;;5.98;81.05;99588.44;4937469;29;20027;-66
2021/12/08 12:15:41;;;;;;;2.47;1.70;;;;;;;6.01;81.52;99596.00;4937426;29;20028;-66
2021/12/08 12:18:07;;;;;;;4.00;1.52;;;;;;;6.02;81.68;99589.66;4937304;29;20039;-66
2021/12/08 12:20:42;;;;;;;2.28;1.70;;;;;;;6.02;81.92;99609.00;4937262;29;20036;-66
2021/12/08 12:23:32;;;;;;;4.00;1.77;;;;;;;6.00;81.44;99611.06;4937248;29;20027;-66
2021/12/08 12:26:22;;;;;;;6.40;2.08;;;;;;;5.99;81.73;99621.84;4936713;29;20058;-66
2021/12/08 12:28:58;;;;;;;4.35;1.42;;;;;;;5.96;81.63;99627.53;4936945;29;20046;-66
2021/12/08 12:31:37;;;;;;;4.00;1.70;;;;;;;5.96;81.61;99628.34;4936996;29;20036;-68
2021/12/08 12:34:02;;;;;;;5.15;1.60;;;;;;;5.94;82.02;99630.34;4937017;29;20024;-66
2021/12/08 12:36:34;;;;;;;7.40;1.92;;;;;;;5.96;82.21;99627.53;4936964;29;20042;-65
2021/12/08 12:39:12;;;;;;;8.05;1.88;;;;;;;5.94;81.66;99633.00;4936877;29;20070;-66
2021/12/08 12:41:38;;;;;;;4.40;1.50;;;;;;;5.91;81.85;99639.47;4936906;29;20116;-65
2021/12/08 12:44:23;;;;;;;7.75;2.72;;;;;;;5.89;82.17;99638.03;4936835;29;20040;-66